createdAt,value
2017-06-05T11:39:46.093Z,34.90
2017-06-05T11:42:12.495Z,34.80
2017-06-05T11:44:39.788Z,35.00
2017-06-05T11:47:06.156Z,35.00
2017-06-05T11:49:32.559Z,35.00
2017-06-05T11:51:58.978Z,34.90
2017-06-05T11:54:25.354Z,35.10
2017-06-05T11:56:51.743Z,34.90
2017-06-05T11:59:18.170Z,35.10
2017-06-05T12:01:44.572Z,35.60
2017-06-05T12:04:11.718Z,35.50
2017-06-05T12:06:38.921Z,35.20
2017-06-05T12:09:05.308Z,35.20
2017-06-05T12:11:31.709Z,35.20
2017-06-05T12:21:13.140Z,35.20
2017-06-05T12:23:39.556Z,35.50
2017-06-05T12:26:05.965Z,37.10
2017-06-05T12:28:33.137Z,37.10
2017-06-05T12:30:59.519Z,37.10
2017-06-05T12:33:25.941Z,37.90
2017-06-05T12:35:52.366Z,38.70
2017-06-05T12:38:18.764Z,37.80
2017-06-05T12:40:45.160Z,37.20
2017-06-05T12:43:11.603Z,36.20
2017-06-05T12:45:38.770Z,37.00
2017-06-05T12:48:05.152Z,37.00
2017-06-05T12:50:31.587Z,34.20
2017-06-05T12:52:57.971Z,32.90
2017-06-05T12:55:24.370Z,34.50
2017-06-05T12:57:51.771Z,33.30
2017-06-05T13:00:18.155Z,33.40
2017-06-05T13:02:44.539Z,32.70
2017-06-05T13:05:11.341Z,31.60
2017-06-05T13:07:37.721Z,34.10
2017-06-05T13:10:04.135Z,33.90
2017-06-05T13:12:30.605Z,32.20
2017-06-05T13:14:56.993Z,32.00
2017-06-05T13:17:23.395Z,30.60
2017-06-05T13:19:50.559Z,34.50
2017-06-05T13:22:17.036Z,34.40
2017-06-05T13:24:43.461Z,34.10
2017-06-05T13:27:09.986Z,33.90
2017-06-05T13:29:36.371Z,33.10
2017-06-05T13:32:03.523Z,32.50
2017-06-05T13:34:29.968Z,32.60
2017-06-05T13:36:56.349Z,32.70
2017-06-05T13:39:22.815Z,34.10
2017-06-05T13:41:49.278Z,33.80
2017-06-05T13:44:15.665Z,35.60
2017-06-05T13:46:42.816Z,33.00
2017-06-05T13:49:09.267Z,33.00
2017-06-05T13:51:35.644Z,31.40
2017-06-05T13:54:02.030Z,32.20
2017-06-05T13:56:28.443Z,31.60
2017-06-05T14:00:13.417Z,31.50
2017-06-05T14:02:42.372Z,34.50
2017-06-05T14:05:10.551Z,33.80
2017-06-05T14:07:38.737Z,31.80
2017-06-05T14:10:06.981Z,32.50
2017-06-05T14:12:35.152Z,31.10
2017-06-05T14:15:03.315Z,31.30
2017-06-05T14:17:31.662Z,30.60
2017-06-05T14:20:00.609Z,31.00
2017-06-05T14:22:28.814Z,30.90
2017-06-05T14:24:57.791Z,29.10
2017-06-05T14:27:26.017Z,29.00
2017-06-05T14:29:54.232Z,26.10
2017-06-05T14:32:22.431Z,27.80
2017-06-05T14:34:51.391Z,31.40
2017-06-05T14:37:19.629Z,31.50
2017-06-05T14:39:47.859Z,30.60
2017-06-05T14:42:16.128Z,29.70
2017-06-05T14:44:44.353Z,30.00
2017-06-05T14:47:12.576Z,30.90
2017-06-05T14:49:40.802Z,31.80
2017-06-05T14:52:09.093Z,30.80
2017-06-05T14:54:37.267Z,33.60
2017-06-05T14:57:05.541Z,32.00
2017-06-05T14:59:33.764Z,32.30
2017-06-05T15:02:01.957Z,32.30
2017-06-05T15:04:30.215Z,33.50
2017-06-05T15:06:59.159Z,34.40
2017-06-05T15:09:27.335Z,34.30
2017-06-05T15:11:55.580Z,34.90
2017-06-05T15:14:23.791Z,34.30
2017-06-05T15:16:51.979Z,32.80
2017-06-05T15:19:20.175Z,33.20
2017-06-05T15:21:48.384Z,32.80
2017-06-05T15:24:16.607Z,33.50
2017-06-05T15:26:45.570Z,35.30
2017-06-05T15:29:13.843Z,35.10
2017-06-05T15:31:42.069Z,36.10
2017-06-05T15:34:10.330Z,36.80
2017-06-05T15:36:39.331Z,35.90
2017-06-05T15:39:08.253Z,36.20
2017-06-05T15:41:36.534Z,36.10
2017-06-05T15:44:04.998Z,36.40
2017-06-05T15:46:33.328Z,36.50
2017-06-05T15:49:01.511Z,36.20
2017-06-05T15:51:30.500Z,39.30
2017-06-05T15:53:59.659Z,40.50
2017-06-05T15:56:27.855Z,40.40
2017-06-05T15:58:56.073Z,41.80
2017-06-05T16:01:24.246Z,40.80
2017-06-05T16:03:52.461Z,40.60
2017-06-05T16:06:20.635Z,41.20
2017-06-05T16:08:48.863Z,43.50
2017-06-05T16:11:17.100Z,44.30
2017-06-05T16:13:45.303Z,44.40
2017-06-05T16:16:13.504Z,44.50
2017-06-05T16:18:41.718Z,44.00
2017-06-05T16:21:09.949Z,44.10
2017-06-05T16:23:38.134Z,43.50
2017-06-05T16:26:06.370Z,44.00
2017-06-05T16:28:34.689Z,44.00
2017-06-05T16:31:02.899Z,43.90
2017-06-05T16:33:31.900Z,43.10
2017-06-05T16:36:00.851Z,41.70
2017-06-05T16:38:29.046Z,41.50
2017-06-05T16:40:57.274Z,41.90
2017-06-05T16:43:25.451Z,42.30
2017-06-05T16:45:53.722Z,41.10
2017-06-05T16:48:21.901Z,40.80
2017-06-05T16:50:50.075Z,41.00
2017-06-05T16:53:18.301Z,42.00
2017-06-05T16:55:47.360Z,42.40
2017-06-05T17:01:06.736Z,42.40
2017-06-05T17:03:35.128Z,42.80
2017-06-05T17:06:03.342Z,42.40
2017-06-05T17:08:31.555Z,43.60
2017-06-05T17:10:59.773Z,43.70
2017-06-05T17:13:28.749Z,42.80
2017-06-05T17:15:56.931Z,42.80
2017-06-05T17:18:25.131Z,42.50
2017-06-05T17:20:53.329Z,42.10
2017-06-05T17:23:21.515Z,41.90
2017-06-05T17:25:49.741Z,42.10
2017-06-05T17:28:18.759Z,42.40
2017-06-05T17:30:46.969Z,42.40
2017-06-05T17:33:15.151Z,42.90
2017-06-05T17:35:43.350Z,42.70
2017-06-05T17:38:12.305Z,43.20
2017-06-05T17:40:40.517Z,43.20
2017-06-05T17:43:10.568Z,44.30
2017-06-05T17:45:38.792Z,44.10
2017-06-05T17:48:06.967Z,44.30
2017-06-05T17:50:35.928Z,44.70
2017-06-05T17:53:04.136Z,44.80
2017-06-05T17:55:33.105Z,43.80
2017-06-05T17:58:01.300Z,44.50
2017-06-05T18:00:30.279Z,45.20
2017-06-05T18:02:58.461Z,45.20
2017-06-05T18:05:27.448Z,45.10
2017-06-05T18:07:55.692Z,45.00
2017-06-05T18:10:23.885Z,45.00
2017-06-05T18:12:52.120Z,45.00
2017-06-05T18:15:20.343Z,45.30
2017-06-05T18:17:49.315Z,46.40
2017-06-05T18:20:17.547Z,45.70
2017-06-05T18:22:45.985Z,45.80
2017-06-05T18:25:14.191Z,46.20
2017-06-05T18:27:43.169Z,47.30
2017-06-05T18:30:12.130Z,47.90
2017-06-05T18:32:40.317Z,47.90
2017-06-05T18:35:09.339Z,48.80
2017-06-05T18:37:37.595Z,48.80
2017-06-05T18:40:06.580Z,49.20
2017-06-05T18:42:35.547Z,49.50
2017-06-05T18:45:03.727Z,49.40
2017-06-05T18:47:31.974Z,49.90
2017-06-05T18:50:00.172Z,50.10
2017-06-05T18:52:28.400Z,50.20
2017-06-05T18:54:56.590Z,50.60
2017-06-05T18:57:24.811Z,51.00
2017-06-05T18:59:53.065Z,51.10
2017-06-05T19:02:22.089Z,51.20
2017-06-05T19:04:51.373Z,51.00
2017-06-05T19:07:19.746Z,51.00
2017-06-05T19:09:47.939Z,50.70
2017-06-05T19:12:16.902Z,51.20
2017-06-05T19:14:45.180Z,51.20
2017-06-05T19:17:14.957Z,51.10
2017-06-05T19:19:43.450Z,51.40
2017-06-05T19:22:12.016Z,51.40
2017-06-05T19:24:41.402Z,51.40
2017-06-05T19:27:09.656Z,52.00
2017-06-05T19:32:13.096Z,53.00
2017-06-05T19:34:41.280Z,53.00
2017-06-05T19:37:09.612Z,53.10
2017-06-05T19:39:38.628Z,53.60
2017-06-05T19:42:06.871Z,53.60
2017-06-05T19:44:35.919Z,54.20
2017-06-05T19:47:04.266Z,54.30
2017-06-05T19:49:32.484Z,54.30
2017-06-05T19:52:00.716Z,55.00
2017-06-05T19:54:28.910Z,55.50
2017-06-05T19:56:57.249Z,56.20
2017-06-05T19:59:26.229Z,56.50
2017-06-05T20:01:54.448Z,56.40
2017-06-05T20:04:23.008Z,56.30
2017-06-05T20:06:51.358Z,55.50
2017-06-05T20:09:19.581Z,55.70
2017-06-05T20:11:47.803Z,56.10
2017-06-05T20:14:15.975Z,57.00
2017-06-05T20:16:44.195Z,56.50
2017-06-05T20:19:12.406Z,57.40
2017-06-05T20:21:40.609Z,57.90
2017-06-05T20:24:09.613Z,59.80
2017-06-05T20:26:38.572Z,61.30
2017-06-05T20:29:06.745Z,61.20
2017-06-05T20:31:35.041Z,62.50
2017-06-05T20:34:03.195Z,62.60
2017-06-05T20:36:31.624Z,63.20
2017-06-05T20:38:59.980Z,63.80
2017-06-05T20:41:28.170Z,65.10
2017-06-05T20:43:56.597Z,65.40
2017-06-05T20:46:24.837Z,66.50
2017-06-05T20:48:53.062Z,66.40
2017-06-05T20:51:21.345Z,66.90
2017-06-05T20:53:50.351Z,67.40
2017-06-05T20:56:18.582Z,67.40
2017-06-05T20:58:46.757Z,67.50
2017-06-05T21:01:15.240Z,67.40
2017-06-05T21:03:43.447Z,68.00
2017-06-05T21:06:12.499Z,68.60
2017-06-05T21:08:40.722Z,68.50
2017-06-05T21:11:08.915Z,68.40
2017-06-05T21:13:37.143Z,68.30
2017-06-05T21:16:05.334Z,69.30
2017-06-05T21:18:34.312Z,69.70
2017-06-05T21:21:03.261Z,70.60
2017-06-05T21:23:31.465Z,70.50
2017-06-05T21:25:59.643Z,70.90
2017-06-05T21:28:28.591Z,73.20
2017-06-05T21:30:56.848Z,72.60
2017-06-05T21:33:25.040Z,73.00
2017-06-05T21:35:53.223Z,73.00
2017-06-05T21:38:21.438Z,72.70
2017-06-05T21:40:50.430Z,73.30
2017-06-05T21:43:19.375Z,72.80
2017-06-05T21:45:47.595Z,72.60
2017-06-05T21:48:16.569Z,73.20
2017-06-05T21:50:44.743Z,73.00
2017-06-05T21:53:12.960Z,72.90
2017-06-05T21:55:41.149Z,73.10
2017-06-05T21:58:09.339Z,73.70
2017-06-05T22:00:37.842Z,74.00
2017-06-05T22:03:06.141Z,73.80
2017-06-05T22:05:34.323Z,72.50
2017-06-05T22:08:03.282Z,72.80
2017-06-05T22:10:31.580Z,72.80
2017-06-05T22:13:00.512Z,72.40
2017-06-05T22:15:28.675Z,72.40
2017-06-05T22:17:56.911Z,72.00
2017-06-05T22:20:25.131Z,71.90
2017-06-05T22:22:53.387Z,70.70
2017-06-05T22:25:21.600Z,71.00
2017-06-05T22:27:49.777Z,70.90
2017-06-05T22:30:18.032Z,71.20
2017-06-05T22:32:46.167Z,72.30
2017-06-05T22:35:14.431Z,73.60
2017-06-05T22:37:42.602Z,73.40
2017-06-05T22:40:11.547Z,72.40
2017-06-05T22:42:39.911Z,72.40
2017-06-05T22:45:08.104Z,72.30
2017-06-05T22:47:36.337Z,72.30
2017-06-05T22:50:05.260Z,73.10
2017-06-05T22:52:33.450Z,73.00
2017-06-05T22:55:01.666Z,73.10
2017-06-05T22:57:30.631Z,73.30
2017-06-05T22:59:58.900Z,73.30
2017-06-05T23:02:27.088Z,73.60
2017-06-05T23:04:55.250Z,73.70
2017-06-05T23:07:23.452Z,73.90
2017-06-05T23:09:51.691Z,74.50
2017-06-05T23:12:19.994Z,74.10
2017-06-05T23:14:48.975Z,76.10
2017-06-05T23:17:17.907Z,76.80
2017-06-05T23:19:46.136Z,75.90
2017-06-05T23:22:14.355Z,76.20
2017-06-05T23:24:42.521Z,76.40
2017-06-05T23:27:10.708Z,76.20
2017-06-05T23:29:38.938Z,75.90
2017-06-05T23:32:07.883Z,76.70
2017-06-05T23:34:36.049Z,76.70
2017-06-05T23:37:04.251Z,77.30
2017-06-05T23:39:32.458Z,77.50
2017-06-05T23:42:01.496Z,78.60
2017-06-05T23:44:29.670Z,78.60
2017-06-05T23:46:57.856Z,79.10
2017-06-05T23:49:26.391Z,78.60
2017-06-05T23:51:55.319Z,79.20
2017-06-05T23:54:23.507Z,79.20
2017-06-05T23:56:51.719Z,79.30
2017-06-05T23:59:20.659Z,79.20
